Time;durP1;ratioP1;P1;durP2;ratioP2;P2;SDS_P1;SDS_P2;PMS_P1;PMS_P2;Temp;Humidity;BMP_temperature;BMP_pressure;BME280_temperature;BME280_humidity;BME280_pressure;Samples;Min_cycle;Max_cycle;Signal;HPM_P1;HPM_P2
2022/08/08 00:00:43;;;;;;;;;;;25.90;39.10;;;;;;1537192;75;1815;-57
2022/08/08 00:02:49;;;;;;;;;;;25.90;39.10;;;;;;1545812;75;1129;-56
2022/08/08 00:04:56;;;;;;;;;;;25.90;39.10;;;;;;1538148;75;737;-58
2022/08/08 00:06:59;;;;;;;;;;;25.90;39.10;;;;;;1537843;75;726;-57
2022/08/08 00:09:12;;;;;;;;;;;25.90;39.10;;;;;;1533368;75;1563;-57
2022/08/08 00:11:15;;;;;;;;;;;25.90;39.10;;;;;;1540105;75;1933;-57
2022/08/08 00:13:28;;;;;;;;;;;25.90;39.10;;;;;;1539128;75;1141;-58
2022/08/08 00:15:31;;;;;;;;;;;25.90;39.00;;;;;;1521585;75;1694;-58
2022/08/08 00:17:53;;;;;;;;;;;25.80;39.00;;;;;;1535169;75;1704;-57
2022/08/08 00:20:00;;;;;;;;;;;25.90;39.00;;;;;;1543276;75;739;-57
2022/08/08 00:22:19;;;;;;;;;;;25.80;39.00;;;;;;1545358;75;724;-57
2022/08/08 00:24:22;;;;;;;;;;;25.80;39.00;;;;;;1532684;75;797;-57
2022/08/08 00:26:25;;;;;;;;;;;25.90;39.10;;;;;;1545851;75;1019;-57
2022/08/08 00:28:32;;;;;;;;;;;25.80;39.00;;;;;;1540734;75;1547;-57
2022/08/08 00:30:36;;;;;;;;;;;25.90;38.90;;;;;;1535348;75;1920;-57
2022/08/08 00:32:49;;;;;;;;;;;25.80;39.00;;;;;;1545073;75;1102;-57
2022/08/08 00:35:17;;;;;;;;;;;25.80;39.00;;;;;;1549928;75;702;-57
2022/08/08 00:37:37;;;;;;;;;;;25.80;39.00;;;;;;1542066;75;1474;-57
2022/08/08 00:39:40;;;;;;;;;;;25.80;39.00;;;;;;1546470;75;731;-57
2022/08/08 00:42:00;;;;;;;;;;;25.80;39.10;;;;;;1542886;75;1863;-58
2022/08/08 00:44:16;;;;;;;;;;;25.80;39.10;;;;;;1541059;75;1568;-57
2022/08/08 00:46:29;;;;;;;;;;;25.80;39.10;;;;;;1547232;75;789;-57
2022/08/08 00:48:41;;;;;;;;;;;25.70;39.10;;;;;;1534254;75;685;-57
2022/08/08 00:50:48;;;;;;;;;;;25.80;39.10;;;;;;1539339;75;1931;-56
2022/08/08 00:53:00;;;;;;;;;;;25.90;39.10;;;;;;1535563;75;1160;-57
2022/08/08 00:55:20;;;;;;;;;;;25.80;39.00;;;;;;1545595;75;1997;-57
2022/08/08 00:57:37;;;;;;;;;;;25.80;39.00;;;;;;1555800;75;684;-57
2022/08/08 00:59:55;;;;;;;;;;;25.70;39.10;;;;;;1540818;75;1546;-57
2022/08/08 01:02:16;;;;;;;;;;;25.80;39.10;;;;;;1543544;75;665;-57
2022/08/08 01:04:38;;;;;;;;;;;25.80;39.10;;;;;;1536330;75;758;-57
2022/08/08 01:06:51;;;;;;;;;;;25.80;39.10;;;;;;1540468;75;714;-57
2022/08/08 01:09:09;;;;;;;;;;;25.80;39.20;;;;;;1539748;75;1623;-58
2022/08/08 01:11:22;;;;;;;;;;;25.90;39.20;;;;;;1551573;75;1930;-57
2022/08/08 01:13:25;;;;;;;;;;;25.80;39.10;;;;;;1550353;75;1465;-58
2022/08/08 01:15:31;;;;;;;;;;;25.80;39.10;;;;;;1544652;75;636;-58
2022/08/08 01:17:38;;;;;;;;;;;25.80;39.10;;;;;;1539584;75;772;-57
2022/08/08 01:19:54;;;;;;;;;;;25.80;39.10;;;;;;1537364;75;1625;-57
2022/08/08 01:22:14;;;;;;;;;;;25.80;39.10;;;;;;1531677;75;1670;-56
2022/08/08 01:24:23;;;;;;;;;;;25.80;39.10;;;;;;1546128;75;787;-57
2022/08/08 01:26:26;;;;;;;;;;;25.80;39.10;;;;;;1535937;75;1417;-57
2022/08/08 01:28:30;;;;;;;;;;;25.80;39.10;;;;;;1543824;75;760;-57
2022/08/08 01:30:39;;;;;;;;;;;25.80;39.10;;;;;;1539042;75;1939;-57
2022/08/08 01:33:01;;;;;;;;;;;25.70;39.00;;;;;;1544786;75;1076;-57
2022/08/08 01:35:21;;;;;;;;;;;25.80;39.10;;;;;;1543618;75;754;-57
2022/08/08 01:37:25;;;;;;;;;;;25.70;39.10;;;;;;1542212;75;694;-57
2022/08/08 01:39:28;;;;;;;;;;;25.70;39.00;;;;;;1546853;75;782;-57
2022/08/08 01:41:32;;;;;;;;;;;25.80;39.10;;;;;;1543650;75;1503;-57
2022/08/08 01:43:35;;;;;;;;;;;25.70;39.10;;;;;;1522743;74;233777;-66
2022/08/08 01:45:39;;;;;;;;;;;25.90;39.00;;;;;;1473643;78;1206;-65
2022/08/08 01:48:01;;;;;;;;;;;25.80;39.10;;;;;;1516282;78;572;-65
2022/08/08 01:50:04;;;;;;;;;;;25.70;39.00;;;;;;1506070;77;1700;-66
2022/08/08 01:52:08;;;;;;;;;;;25.80;39.00;;;;;;1472270;78;1945;-67
2022/08/08 01:54:17;;;;;;;;;;;25.70;39.00;;;;;;1531036;76;1620;-66
2022/08/08 01:56:29;;;;;;;;;;;25.70;39.00;;;;;;1517794;76;727;-65
2022/08/08 01:58:48;;;;;;;;;;;25.70;39.00;;;;;;1521276;76;1479;-66
2022/08/08 02:01:01;;;;;;;;;;;25.70;39.00;;;;;;1528578;76;730;-66
2022/08/08 02:03:07;;;;;;;;;;;25.70;39.00;;;;;;1518285;76;1159;-65
2022/08/08 02:05:11;;;;;;;;;;;25.70;39.00;;;;;;1526882;76;1675;-66
2022/08/08 02:07:14;;;;;;;;;;;25.80;39.00;;;;;;1534155;76;797;-66
2022/08/08 02:09:20;;;;;;;;;;;25.70;39.00;;;;;;1532745;76;2176;-66
2022/08/08 02:11:33;;;;;;;;;;;25.70;38.90;;;;;;1522168;76;1937;-66
2022/08/08 02:13:37;;;;;;;;;;;25.70;39.00;;;;;;1542672;76;1144;-66
2022/08/08 02:15:52;;;;;;;;;;;25.70;38.90;;;;;;1520929;76;870;-65
2022/08/08 02:18:02;;;;;;;;;;;25.70;38.90;;;;;;1520007;76;998;-65
2022/08/08 02:20:18;;;;;;;;;;;25.70;38.90;;;;;;1528010;76;1404;-66
2022/08/08 02:22:33;;;;;;;;;;;25.70;38.90;;;;;;1520504;76;1875;-65
2022/08/08 02:24:39;;;;;;;;;;;25.70;38.90;;;;;;1500763;78;565;-66
2022/08/08 02:26:44;;;;;;;;;;;25.70;38.80;;;;;;1521781;76;1484;-66
2022/08/08 02:28:53;;;;;;;;;;;25.70;38.80;;;;;;1534826;76;712;-66
2022/08/08 02:31:05;;;;;;;;;;;25.70;38.80;;;;;;1470804;77;1935;-65
2022/08/08 02:33:25;;;;;;;;;;;25.70;38.80;;;;;;1511265;78;1155;-66
2022/08/08 02:35:29;;;;;;;;;;;25.70;38.70;;;;;;1505173;77;694;-66
2022/08/08 02:37:48;;;;;;;;;;;25.70;38.70;;;;;;1533294;76;1841;-66
2022/08/08 02:40:08;;;;;;;;;;;25.70;38.60;;;;;;1520760;76;1420;-66
2022/08/08 02:42:28;;;;;;;;;;;25.70;38.70;;;;;;1529622;76;719;-67
2022/08/08 02:44:49;;;;;;;;;;;25.70;38.60;;;;;;1528380;76;817;-67
2022/08/08 02:46:53;;;;;;;;;;;25.70;38.60;;;;;;1495964;77;697;-66
2022/08/08 02:49:12;;;;;;;;;;;25.70;38.60;;;;;;1528433;76;775;-67
2022/08/08 02:51:22;;;;;;;;;;;25.70;38.60;;;;;;1505144;77;1935;-67
2022/08/08 02:53:31;;;;;;;;;;;25.70;38.60;;;;;;1534331;76;1859;-67
2022/08/08 02:55:47;;;;;;;;;;;25.70;38.60;;;;;;1531602;76;1860;-68
2022/08/08 02:58:07;;;;;;;;;;;25.70;38.60;;;;;;1529285;76;738;-67
2022/08/08 03:00:16;;;;;;;;;;;25.70;38.60;;;;;;1496799;77;840;-67
2022/08/08 03:02:32;;;;;;;;;;;25.60;38.50;;;;;;1533448;76;690;-68
2022/08/08 03:04:47;;;;;;;;;;;25.60;38.50;;;;;;1506539;77;1564;-67
2022/08/08 03:07:06;;;;;;;;;;;25.70;38.60;;;;;;1514519;77;758;-67
2022/08/08 03:09:26;;;;;;;;;;;25.60;38.60;;;;;;1503882;77;809;-67
2022/08/08 03:11:46;;;;;;;;;;;25.60;38.60;;;;;;1508493;77;1913;-67
2022/08/08 03:13:50;;;;;;;;;;;25.70;38.60;;;;;;1512870;77;1141;-67
2022/08/08 03:16:10;;;;;;;;;;;25.60;38.50;;;;;;1535431;76;1494;-67
2022/08/08 03:18:29;;;;;;;;;;;25.70;38.60;;;;;;1533749;76;1540;-67
2022/08/08 03:20:51;;;;;;;;;;;25.60;38.60;;;;;;1541287;76;722;-67
2022/08/08 03:22:53;;;;;;;;;;;25.70;38.50;;;;;;1541360;75;1636;-67
2022/08/08 03:24:55;;;;;;;;;;;25.60;38.50;;;;;;1546188;76;774;-67
2022/08/08 03:26:58;;;;;;;;;;;25.60;38.50;;;;;;1527429;77;776;-67
2022/08/08 03:29:01;;;;;;;;;;;25.60;38.60;;;;;;1538851;76;1472;-67
2022/08/08 03:33:16;;;;;;;;;;;25.60;38.50;;;;;;1502164;77;1921;-67
2022/08/08 03:33:18;;;;;;;;;;;25.60;38.50;;;;;;1517384;77;1571;-67
2022/08/08 03:35:22;;;;;;;;;;;25.70;38.40;;;;;;1505260;77;755;-69
2022/08/08 03:37:24;;;;;;;;;;;25.60;38.50;;;;;;1534273;77;1664;-67
2022/08/08 03:39:26;;;;;;;;;;;25.60;38.50;;;;;;1526355;76;740;-66
2022/08/08 03:41:34;;;;;;;;;;;25.70;38.50;;;;;;1536437;76;737;-66
2022/08/08 03:43:36;;;;;;;;;;;25.60;38.50;;;;;;1514688;77;1122;-67
2022/08/08 03:45:38;;;;;;;;;;;25.60;38.50;;;;;;1533144;77;748;-67
2022/08/08 03:47:40;;;;;;;;;;;25.60;38.50;;;;;;1524485;76;1273;-67
2022/08/08 03:49:41;;;;;;;;;;;25.60;38.50;;;;;;1529445;76;824;-66
2022/08/08 03:51:43;;;;;;;;;;;25.60;38.50;;;;;;1528926;76;1936;-68
2022/08/08 03:53:45;;;;;;;;;;;25.60;38.50;;;;;;1525584;76;1174;-68
2022/08/08 03:55:52;;;;;;;;;;;25.60;38.70;;;;;;1523715;76;795;-68
2022/08/08 03:57:52;;;;;;;;;;;25.70;38.70;;;;;;1518934;77;962;-66
2022/08/08 03:59:54;;;;;;;;;;;25.70;38.80;;;;;;1522228;77;800;-66
2022/08/08 04:01:55;;;;;;;;;;;25.70;38.80;;;;;;1543320;76;1501;-67
2022/08/08 04:03:57;;;;;;;;;;;25.80;38.70;;;;;;1543060;76;1138;-67
2022/08/08 04:05:59;;;;;;;;;;;25.80;38.60;;;;;;1508256;77;1221;-66
2022/08/08 04:08:02;;;;;;;;;;;25.90;38.50;;;;;;1507298;77;1280;-67
2022/08/08 04:10:04;;;;;;;;;;;25.90;38.50;;;;;;1535539;76;864;-67
2022/08/08 04:12:06;;;;;;;;;;;25.90;38.40;;;;;;1534227;77;1910;-66
2022/08/08 04:14:08;;;;;;;;;;;26.00;38.90;;;;;;1536416;76;1111;-66
2022/08/08 04:16:10;;;;;;;;;;;26.00;38.80;;;;;;1534865;76;1580;-66
2022/08/08 04:18:12;;;;;;;;;;;26.00;38.90;;;;;;1536309;76;802;-67
2022/08/08 04:20:14;;;;;;;;;;;26.00;38.90;;;;;;1530900;76;861;-67
2022/08/08 04:22:16;;;;;;;;;;;25.90;38.40;;;;;;1532427;76;778;-66
2022/08/08 04:24:17;;;;;;;;;;;26.00;38.90;;;;;;1537536;75;1067;-66
2022/08/08 04:26:19;;;;;;;;;;;26.00;39.00;;;;;;1536370;76;730;-67
2022/08/08 04:28:21;;;;;;;;;;;26.00;39.10;;;;;;1531907;76;780;-66
2022/08/08 04:30:23;;;;;;;;;;;25.90;38.50;;;;;;1535181;76;1738;-67
2022/08/08 04:32:25;;;;;;;;;;;26.00;39.10;;;;;;1535411;76;1930;-67
2022/08/08 04:34:27;;;;;;;;;;;26.00;39.10;;;;;;1533575;76;796;-68
2022/08/08 04:36:29;;;;;;;;;;;25.90;38.60;;;;;;1534733;76;748;-69
2022/08/08 04:38:31;;;;;;;;;;;25.90;38.60;;;;;;1534465;76;956;-67
2022/08/08 04:40:33;;;;;;;;;;;25.90;38.60;;;;;;1534111;76;736;-68
2022/08/08 04:42:35;;;;;;;;;;;25.90;38.60;;;;;;1532696;76;1636;-67
2022/08/08 04:44:37;;;;;;;;;;;25.90;38.60;;;;;;1535687;76;824;-69
2022/08/08 04:46:39;;;;;;;;;;;25.90;38.70;;;;;;1534090;76;781;-68
2022/08/08 04:48:40;;;;;;;;;;;25.90;38.70;;;;;;1533670;76;814;-68
2022/08/08 04:50:42;;;;;;;;;;;25.90;38.70;;;;;;1535930;75;900;-68
2022/08/08 04:52:44;;;;;;;;;;;25.80;38.80;;;;;;1503954;77;2063;-69
2022/08/08 04:54:46;;;;;;;;;;;25.90;38.80;;;;;;1503515;77;735;-67
2022/08/08 04:56:48;;;;;;;;;;;25.80;38.90;;;;;;1507959;77;1549;-68
2022/08/08 04:58:50;;;;;;;;;;;25.90;38.90;;;;;;1535053;77;790;-68
2022/08/08 05:00:52;;;;;;;;;;;25.80;38.90;;;;;;1530764;76;785;-67
2022/08/08 05:02:53;;;;;;;;;;;25.80;38.90;;;;;;1534520;77;1172;-66
2022/08/08 05:04:55;;;;;;;;;;;25.80;39.00;;;;;;1533710;77;749;-67
2022/08/08 05:06:57;;;;;;;;;;;25.80;39.00;;;;;;1533123;77;824;-67
2022/08/08 05:08:59;;;;;;;;;;;25.80;39.00;;;;;;1508230;78;743;-69
2022/08/08 05:11:01;;;;;;;;;;;25.80;39.10;;;;;;1534721;77;1550;-67
2022/08/08 05:13:03;;;;;;;;;;;25.80;39.10;;;;;;1529493;76;1937;-66
2022/08/08 05:15:05;;;;;;;;;;;25.80;39.00;;;;;;1530039;77;762;-68
2022/08/08 05:17:07;;;;;;;;;;;25.90;39.10;;;;;;1531702;75;725;-68
2022/08/08 05:19:11;;;;;;;;;;;25.80;39.00;;;;;;1529984;76;779;-67
2022/08/08 05:21:12;;;;;;;;;;;25.80;39.10;;;;;;1540022;76;1749;-68
2022/08/08 05:23:14;;;;;;;;;;;25.80;39.00;;;;;;1534655;77;1152;-69
2022/08/08 05:25:17;;;;;;;;;;;25.80;39.00;;;;;;1536050;76;1526;-67
2022/08/08 05:27:18;;;;;;;;;;;25.80;39.00;;;;;;1532167;76;759;-68
2022/08/08 05:29:20;;;;;;;;;;;25.80;39.00;;;;;;1535431;77;712;-67
2022/08/08 05:31:22;;;;;;;;;;;25.90;39.10;;;;;;1533349;77;1926;-68
2022/08/08 05:33:24;;;;;;;;;;;25.80;39.10;;;;;;1533036;76;1165;-67
2022/08/08 05:35:26;;;;;;;;;;;25.80;39.10;;;;;;1538170;76;888;-68
2022/08/08 05:37:30;;;;;;;;;;;25.90;39.00;;;;;;1532649;77;635;-69
2022/08/08 05:39:31;;;;;;;;;;;25.90;39.20;;;;;;1533761;76;1560;-68
2022/08/08 05:41:34;;;;;;;;;;;25.90;39.10;;;;;;1534462;77;737;-67
2022/08/08 05:43:36;;;;;;;;;;;25.90;38.90;;;;;;1531483;76;1157;-68
2022/08/08 05:45:38;;;;;;;;;;;26.00;39.40;;;;;;1534213;77;793;-71
2022/08/08 05:47:40;;;;;;;;;;;26.00;39.40;;;;;;1534155;77;713;-69
2022/08/08 05:49:46;;;;;;;;;;;26.00;39.40;;;;;;1535005;76;740;-68
2022/08/08 05:51:46;;;;;;;;;;;26.00;39.40;;;;;;1530647;76;1920;-71
2022/08/08 05:53:48;;;;;;;;;;;26.00;39.30;;;;;;1530329;76;1536;-69
2022/08/08 05:55:49;;;;;;;;;;;26.00;39.40;;;;;;1534099;77;636;-69
2022/08/08 05:57:51;;;;;;;;;;;26.00;39.30;;;;;;1535377;77;766;-69
2022/08/08 05:59:53;;;;;;;;;;;26.10;39.30;;;;;;1529985;76;810;-66
2022/08/08 06:01:57;;;;;;;;;;;26.00;39.30;;;;;;1535218;76;749;-67
2022/08/08 06:04:02;;;;;;;;;;;26.10;39.20;;;;;;1533216;76;1134;-68
2022/08/08 06:06:08;;;;;;;;;;;26.20;39.20;;;;;;1510699;77;810;-68
2022/08/08 06:08:07;;;;;;;;;;;26.20;39.20;;;;;;1508594;77;1576;-68
2022/08/08 06:10:09;;;;;;;;;;;26.10;39.10;;;;;;1510847;77;787;-68
2022/08/08 06:12:11;;;;;;;;;;;26.10;39.20;;;;;;1530928;77;1924;-68
2022/08/08 06:14:13;;;;;;;;;;;26.20;39.20;;;;;;1523610;77;1115;-68
2022/08/08 06:16:16;;;;;;;;;;;26.20;39.20;;;;;;1512540;77;712;-68
2022/08/08 06:18:17;;;;;;;;;;;26.20;39.20;;;;;;1509802;77;718;-67
2022/08/08 06:20:19;;;;;;;;;;;26.20;39.20;;;;;;1534470;76;723;-68
2022/08/08 06:22:21;;;;;;;;;;;26.20;39.10;;;;;;1536277;76;1596;-68
2022/08/08 06:24:23;;;;;;;;;;;26.20;39.10;;;;;;1533407;76;749;-68
2022/08/08 06:26:25;;;;;;;;;;;25.70;38.70;;;;;;1532846;77;975;-67
2022/08/08 06:28:29;;;;;;;;;;;26.20;39.20;;;;;;1533365;76;721;-68
2022/08/08 06:30:31;;;;;;;;;;;26.20;39.30;;;;;;1533619;76;721;-68
2022/08/08 06:32:32;;;;;;;;;;;26.30;39.40;;;;;;1537758;76;1956;-68
2022/08/08 06:34:39;;;;;;;;;;;26.30;39.60;;;;;;1532155;76;791;-68
2022/08/08 06:36:42;;;;;;;;;;;26.20;39.90;;;;;;1527410;76;1557;-68
2022/08/08 06:38:44;;;;;;;;;;;26.20;40.10;;;;;;1532940;76;815;-68
2022/08/08 06:40:47;;;;;;;;;;;26.10;40.10;;;;;;1509970;77;721;-68
2022/08/08 06:42:56;;;;;;;;;;;26.10;40.10;;;;;;1533800;76;1111;-68
2022/08/08 06:44:58;;;;;;;;;;;26.20;40.00;;;;;;1535540;77;930;-68
2022/08/08 06:47:00;;;;;;;;;;;26.20;40.40;;;;;;1533507;76;909;-67
2022/08/08 06:49:01;;;;;;;;;;;26.20;39.90;;;;;;1533645;76;717;-68
2022/08/08 06:51:03;;;;;;;;;;;26.20;39.80;;;;;;1527141;76;701;-69
2022/08/08 06:53:07;;;;;;;;;;;26.30;39.40;;;;;;1534884;76;1948;-69
2022/08/08 06:55:09;;;;;;;;;;;26.10;39.40;;;;;;1534926;76;767;-69
2022/08/08 06:57:11;;;;;;;;;;;26.10;39.40;;;;;;1535644;76;754;-69
2022/08/08 06:59:13;;;;;;;;;;;26.10;39.40;;;;;;1534210;76;705;-70
2022/08/08 07:01:14;;;;;;;;;;;26.00;39.50;;;;;;1537786;76;717;-69
2022/08/08 07:03:24;;;;;;;;;;;26.00;39.50;;;;;;1528769;76;1560;-69
2022/08/08 07:05:26;;;;;;;;;;;26.00;39.50;;;;;;1534413;75;1082;-70
2022/08/08 07:07:35;;;;;;;;;;;26.00;39.50;;;;;;1535866;76;719;-69
2022/08/08 07:09:45;;;;;;;;;;;26.00;39.60;;;;;;1536188;76;1653;-70
2022/08/08 07:11:50;;;;;;;;;;;26.00;39.60;;;;;;1528380;76;1172;-66
2022/08/08 07:13:53;;;;;;;;;;;26.00;39.60;;;;;;1527357;76;1972;-71
2022/08/08 07:16:04;;;;;;;;;;;26.00;39.90;;;;;;1528489;76;783;-69
2022/08/08 07:18:07;;;;;;;;;;;26.10;39.70;;;;;;1545591;76;1549;-69
2022/08/08 07:20:09;;;;;;;;;;;26.00;39.80;;;;;;1538541;76;793;-68
2022/08/08 07:22:11;;;;;;;;;;;26.10;39.70;;;;;;1532747;76;784;-68
2022/08/08 07:24:13;;;;;;;;;;;26.10;39.80;;;;;;1535822;76;1118;-68
2022/08/08 07:26:15;;;;;;;;;;;26.20;39.50;;;;;;1533132;76;718;-69
2022/08/08 07:28:25;;;;;;;;;;;26.20;39.60;;;;;;1539257;76;787;-68
2022/08/08 07:30:26;;;;;;;;;;;26.30;39.50;;;;;;1536106;76;715;-68
2022/08/08 07:32:28;;;;;;;;;;;26.20;39.00;;;;;;1539111;76;1938;-69
2022/08/08 07:34:30;;;;;;;;;;;26.30;39.40;;;;;;1536343;76;798;-70
2022/08/08 07:36:32;;;;;;;;;;;26.30;39.20;;;;;;1534925;76;748;-69
2022/08/08 07:38:34;;;;;;;;;;;26.30;38.80;;;;;;1531815;77;705;-68
2022/08/08 07:40:37;;;;;;;;;;;26.30;39.20;;;;;;1537142;76;810;-69
2022/08/08 07:42:43;;;;;;;;;;;26.30;39.10;;;;;;1532484;76;1199;-69
2022/08/08 07:44:45;;;;;;;;;;;26.30;38.70;;;;;;1528138;76;1475;-69
2022/08/08 07:46:47;;;;;;;;;;;26.40;38.90;;;;;;1528549;76;1574;-69
2022/08/08 07:48:49;;;;;;;;;;;26.40;38.70;;;;;;1540170;76;786;-70
2022/08/08 07:50:52;;;;;;;;;;;26.40;38.80;;;;;;1528434;76;718;-70
2022/08/08 07:52:58;;;;;;;;;;;26.40;38.70;;;;;;1519954;77;1928;-69
2022/08/08 07:55:04;;;;;;;;;;;26.40;38.70;;;;;;1524848;76;618;-70
2022/08/08 07:57:20;;;;;;;;;;;26.30;39.10;;;;;;1525221;76;1030;-69
2022/08/08 07:59:22;;;;;;;;;;;26.40;39.00;;;;;;1533124;76;2282;-69
2022/08/08 08:01:25;;;;;;;;;;;26.40;38.90;;;;;;1534370;77;742;-70
2022/08/08 08:03:31;;;;;;;;;;;26.40;38.70;;;;;;1531281;76;1141;-68
2022/08/08 08:05:32;;;;;;;;;;;26.50;38.80;;;;;;1523041;77;1178;-68
2022/08/08 08:07:34;;;;;;;;;;;26.50;38.80;;;;;;1528384;76;665;-70
2022/08/08 08:09:37;;;;;;;;;;;26.60;38.60;;;;;;1523290;76;789;-69
2022/08/08 08:11:40;;;;;;;;;;;26.50;38.60;;;;;;1524002;76;733;-69
2022/08/08 08:14:01;;;;;;;;;;;26.50;38.60;;;;;;1526890;76;1941;-68
2022/08/08 08:16:04;;;;;;;;;;;26.50;38.60;;;;;;1530484;76;862;-71
2022/08/08 08:18:06;;;;;;;;;;;26.40;38.40;;;;;;1530485;76;683;-69
2022/08/08 08:20:08;;;;;;;;;;;26.40;38.50;;;;;;1532133;76;807;-71
2022/08/08 08:22:10;;;;;;;;;;;26.40;38.80;;;;;;1527578;76;740;-70
2022/08/08 08:24:12;;;;;;;;;;;26.40;38.50;;;;;;1532350;76;1147;-70
2022/08/08 08:26:16;;;;;;;;;;;26.40;38.80;;;;;;1529354;76;787;-70
2022/08/08 08:28:20;;;;;;;;;;;26.50;38.40;;;;;;1529647;76;1764;-70
2022/08/08 08:30:21;;;;;;;;;;;26.50;38.60;;;;;;1531183;76;1664;-70
2022/08/08 08:32:23;;;;;;;;;;;26.50;38.50;;;;;;1535604;76;717;-70
2022/08/08 08:34:25;;;;;;;;;;;26.40;38.20;;;;;;1532990;76;774;-70
2022/08/08 08:36:27;;;;;;;;;;;26.40;38.40;;;;;;1529864;76;788;-70
2022/08/08 08:38:29;;;;;;;;;;;26.50;38.60;;;;;;1528292;76;753;-70
2022/08/08 08:40:31;;;;;;;;;;;26.50;38.30;;;;;;1543880;76;834;-70
2022/08/08 08:42:33;;;;;;;;;;;26.60;38.60;;;;;;1524795;76;1156;-70
2022/08/08 08:44:35;;;;;;;;;;;26.50;38.30;;;;;;1520842;77;783;-71
2022/08/08 08:46:37;;;;;;;;;;;26.50;38.10;;;;;;1515176;77;848;-70
2022/08/08 08:48:40;;;;;;;;;;;26.50;38.40;;;;;;1510278;79;526;-70
2022/08/08 08:50:42;;;;;;;;;;;26.60;38.10;;;;;;1535919;76;771;-69
2022/08/08 08:52:44;;;;;;;;;;;26.60;38.00;;;;;;1532246;76;1967;-70
2022/08/08 08:54:46;;;;;;;;;;;26.50;38.20;;;;;;1533485;75;732;-70
2022/08/08 08:56:48;;;;;;;;;;;26.50;38.40;;;;;;1536809;76;729;-70
2022/08/08 08:58:50;;;;;;;;;;;26.60;38.30;;;;;;1525481;76;806;-70
2022/08/08 09:00:52;;;;;;;;;;;26.60;38.00;;;;;;1532894;76;1591;-70
2022/08/08 09:02:54;;;;;;;;;;;26.60;38.20;;;;;;1535128;75;1205;-70
2022/08/08 09:04:56;;;;;;;;;;;26.60;37.80;;;;;;1530098;76;774;-69
2022/08/08 09:06:58;;;;;;;;;;;26.60;38.10;;;;;;1533253;76;803;-69
2022/08/08 09:09:05;;;;;;;;;;;26.60;37.90;;;;;;1513973;77;677;-70
2022/08/08 09:11:07;;;;;;;;;;;26.50;37.70;;;;;;1507121;77;787;-71
2022/08/08 09:13:08;;;;;;;;;;;26.50;37.80;;;;;;1520318;77;1944;-71
2022/08/08 09:15:10;;;;;;;;;;;26.60;38.20;;;;;;1516668;77;752;-71
2022/08/08 09:17:15;;;;;;;;;;;26.60;38.00;;;;;;1500856;77;737;-71
2022/08/08 09:19:17;;;;;;;;;;;26.60;38.00;;;;;;1509351;77;827;-72
2022/08/08 09:21:19;;;;;;;;;;;26.70;37.90;;;;;;1526207;76;773;-72
2022/08/08 09:23:21;;;;;;;;;;;26.70;37.60;;;;;;1526418;76;1136;-71
2022/08/08 09:25:23;;;;;;;;;;;26.70;38.00;;;;;;1523684;76;742;-72
2022/08/08 09:27:25;;;;;;;;;;;26.80;37.50;;;;;;1531401;76;785;-71
2022/08/08 09:29:27;;;;;;;;;;;26.60;37.20;;;;;;1536939;76;737;-70
2022/08/08 09:31:33;;;;;;;;;;;26.60;37.30;;;;;;1537883;76;627;-71
2022/08/08 09:33:35;;;;;;;;;;;26.60;37.10;;;;;;1535123;76;1941;-69
2022/08/08 09:35:38;;;;;;;;;;;26.60;37.70;;;;;;1537253;76;728;-71
2022/08/08 09:37:48;;;;;;;;;;;26.60;37.60;;;;;;1536197;76;656;-69
2022/08/08 09:39:54;;;;;;;;;;;26.70;37.60;;;;;;1534010;76;779;-70
2022/08/08 09:42:02;;;;;;;;;;;26.70;37.10;;;;;;1515774;77;1900;-72
2022/08/08 09:44:05;;;;;;;;;;;26.70;37.30;;;;;;1505801;77;1308;-72
2022/08/08 09:46:07;;;;;;;;;;;26.70;37.50;;;;;;1501747;77;1590;-71
2022/08/08 09:48:09;;;;;;;;;;;26.70;37.00;;;;;;1505027;77;805;-71
2022/08/08 09:50:12;;;;;;;;;;;26.70;37.30;;;;;;1509230;77;746;-72
2022/08/08 09:52:15;;;;;;;;;;;26.60;36.80;;;;;;1510655;77;750;-69
2022/08/08 09:54:18;;;;;;;;;;;26.50;37.00;;;;;;1513741;76;1954;-70
2022/08/08 09:56:19;;;;;;;;;;;26.50;36.80;;;;;;1519069;77;1670;-70
2022/08/08 09:58:21;;;;;;;;;;;26.50;36.60;;;;;;1547060;76;740;-70
2022/08/08 10:00:23;;;;;;;;;;;26.40;37.10;;;;;;1518266;77;726;-69
2022/08/08 10:02:27;;;;;;;;;;;26.50;37.20;;;;;;1545853;76;1201;-69
2022/08/08 10:04:29;;;;;;;;;;;26.50;37.10;;;;;;1505455;77;763;-70
2022/08/08 10:06:31;;;;;;;;;;;26.40;37.00;;;;;;1511042;77;639;-67
2022/08/08 10:08:33;;;;;;;;;;;26.50;37.20;;;;;;1510841;77;724;-69
2022/08/08 10:10:37;;;;;;;;;;;26.40;36.80;;;;;;1479637;78;1132;-69
2022/08/08 10:12:39;;;;;;;;;;;26.40;37.30;;;;;;1561829;74;1157;-67
2022/08/08 10:14:41;;;;;;;;;;;26.40;37.60;;;;;;1572262;74;1951;-70
2022/08/08 10:16:43;;;;;;;;;;;26.40;37.40;;;;;;1563576;74;740;-69
2022/08/08 10:18:45;;;;;;;;;;;26.40;37.30;;;;;;1571202;74;813;-69
2022/08/08 10:20:47;;;;;;;;;;;26.40;37.60;;;;;;1566416;74;794;-70
2022/08/08 10:22:59;;;;;;;;;;;26.40;37.70;;;;;;1565233;74;1138;-70
2022/08/08 10:25:04;;;;;;;;;;;26.40;37.80;;;;;;1563629;74;800;-70
2022/08/08 10:27:06;;;;;;;;;;;26.30;37.90;;;;;;1560789;74;714;-69
2022/08/08 10:29:08;;;;;;;;;;;26.30;37.60;;;;;;1550098;74;671;-69
2022/08/08 10:33:32;;;;;;;;;;;26.40;37.30;;;;;;1569647;74;1937;-65
2022/08/08 10:35:34;;;;;;;;;;;26.30;37.60;;;;;;1564102;74;667;-69
2022/08/08 10:37:36;;;;;;;;;;;26.20;37.80;;;;;;1557492;74;704;-71
2022/08/08 10:39:39;;;;;;;;;;;26.20;37.90;;;;;;1552647;74;675;-69
2022/08/08 10:41:41;;;;;;;;;;;26.20;38.00;;;;;;1561760;74;1917;-69
2022/08/08 10:43:43;;;;;;;;;;;26.20;37.40;;;;;;1566128;74;1132;-67
2022/08/08 10:45:45;;;;;;;;;;;26.20;37.20;;;;;;1561456;74;733;-68
2022/08/08 10:47:48;;;;;;;;;;;26.20;37.30;;;;;;1570337;74;826;-70
2022/08/08 10:49:51;;;;;;;;;;;26.20;37.10;;;;;;1567488;74;1902;-69
2022/08/08 10:51:53;;;;;;;;;;;26.20;37.10;;;;;;1561503;75;1617;-67
2022/08/08 10:53:54;;;;;;;;;;;26.20;37.30;;;;;;1564266;74;1948;-69
2022/08/08 10:55:59;;;;;;;;;;;26.20;37.50;;;;;;1563270;74;830;-69
2022/08/08 10:58:02;;;;;;;;;;;26.20;37.50;;;;;;1563510;74;912;-72
2022/08/08 11:00:05;;;;;;;;;;;26.20;37.20;;;;;;1566488;74;763;-71
2022/08/08 11:02:07;;;;;;;;;;;26.20;36.80;;;;;;1561684;74;710;-71
2022/08/08 11:04:09;;;;;;;;;;;26.20;37.40;;;;;;1570879;74;1151;-70
2022/08/08 11:06:11;;;;;;;;;;;26.30;36.80;;;;;;1557111;74;793;-71
2022/08/08 11:08:20;;;;;;;;;;;26.30;37.10;;;;;;1561366;74;721;-70
2022/08/08 11:10:23;;;;;;;;;;;26.30;37.30;;;;;;1549966;74;794;-68
2022/08/08 11:12:25;;;;;;;;;;;26.30;37.00;;;;;;1559040;74;1185;-67
2022/08/08 11:14:27;;;;;;;;;;;26.20;36.90;;;;;;1562175;74;1922;-69
2022/08/08 11:16:31;;;;;;;;;;;26.30;37.40;;;;;;1557335;74;816;-69
2022/08/08 11:18:33;;;;;;;;;;;26.20;37.20;;;;;;1550252;74;2082;-70
2022/08/08 11:20:35;;;;;;;;;;;26.20;37.60;;;;;;1556367;74;722;-69
2022/08/08 11:22:37;;;;;;;;;;;26.20;37.30;;;;;;1560737;74;1172;-69
2022/08/08 11:24:39;;;;;;;;;;;26.20;37.50;;;;;;1564979;76;654;-68
2022/08/08 11:26:42;;;;;;;;;;;26.30;37.30;;;;;;1564952;76;826;-69
2022/08/08 11:28:44;;;;;;;;;;;26.20;36.80;;;;;;1563765;74;725;-67
2022/08/08 11:30:46;;;;;;;;;;;26.20;37.10;;;;;;1572125;74;912;-72
2022/08/08 11:32:48;;;;;;;;;;;26.20;36.60;;;;;;1570340;74;1124;-67
2022/08/08 11:34:50;;;;;;;;;;;26.20;36.80;;;;;;1558135;74;1938;-68
2022/08/08 11:36:51;;;;;;;;;;;26.30;36.90;;;;;;1561917;74;617;-69
2022/08/08 11:38:53;;;;;;;;;;;26.20;36.80;;;;;;1564993;74;816;-66
2022/08/08 11:40:55;;;;;;;;;;;26.20;36.20;;;;;;1567290;74;742;-67
2022/08/08 11:42:57;;;;;;;;;;;26.10;36.20;;;;;;1559227;74;1156;-69
2022/08/08 11:44:59;;;;;;;;;;;26.10;36.40;;;;;;1564952;74;710;-67
2022/08/08 11:47:01;;;;;;;;;;;26.00;35.60;;;;;;1572051;74;815;-66
2022/08/08 11:49:03;;;;;;;;;;;26.10;36.50;;;;;;1561065;74;1562;-67
2022/08/08 11:51:05;;;;;;;;;;;26.00;36.30;;;;;;1559881;74;754;-66
2022/08/08 11:53:07;;;;;;;;;;;26.00;36.90;;;;;;1565732;74;1105;-68
2022/08/08 11:55:19;;;;;;;;;;;26.20;36.60;;;;;;1573092;74;1929;-67
2022/08/08 11:57:22;;;;;;;;;;;26.10;35.80;;;;;;1552641;74;761;-67
2022/08/08 11:59:25;;;;;;;;;;;26.20;36.10;;;;;;1562006;74;794;-67
2022/08/08 12:01:31;;;;;;;;;;;26.10;36.30;;;;;;1550277;74;1979;-66
2022/08/08 12:03:33;;;;;;;;;;;26.10;36.20;;;;;;1552220;74;1189;-68
2022/08/08 12:05:36;;;;;;;;;;;26.10;36.30;;;;;;1569943;74;767;-67
2022/08/08 12:07:51;;;;;;;;;;;26.20;36.30;;;;;;1569506;74;775;-67
2022/08/08 12:09:55;;;;;;;;;;;26.20;36.20;;;;;;1567480;74;800;-66
2022/08/08 12:11:57;;;;;;;;;;;26.20;36.20;;;;;;1556603;74;777;-66
2022/08/08 12:14:00;;;;;;;;;;;26.20;36.10;;;;;;1549406;74;1962;-66
2022/08/08 12:16:12;;;;;;;;;;;26.20;36.20;;;;;;1562515;74;1901;-65
2022/08/08 12:18:26;;;;;;;;;;;26.10;35.50;;;;;;1566780;74;680;-66
2022/08/08 12:20:37;;;;;;;;;;;26.20;36.30;;;;;;1564231;74;770;-66
2022/08/08 12:22:49;;;;;;;;;;;26.20;36.40;;;;;;1557869;75;1087;-66
2022/08/08 12:24:52;;;;;;;;;;;26.20;35.80;;;;;;1561867;74;761;-66
2022/08/08 12:26:54;;;;;;;;;;;26.10;36.20;;;;;;1565043;74;747;-64
2022/08/08 12:28:56;;;;;;;;;;;26.20;36.30;;;;;;1559920;74;712;-65